Time;durP1;ratioP1;P1;durP2;ratioP2;P2;SDS_P1;SDS_P2;PMS_P1;PMS_P2;Temp;Humidity;BMP_temperature;BMP_pressure;BME280_temperature;BME280_humidity;BME280_pressure;Samples;Min_cycle;Max_cycle;Signal;HPM_P1;HPM_P2
2023/10/01 00:00:09;;;;;;;7.57;5.20;;;18.70;70.10;;;;;;5034218;28;20210;-75
2023/10/01 00:02:37;;;;;;;7.43;5.20;;;18.70;70.10;;;;;;5040022;28;20229;-75
2023/10/01 00:05:05;;;;;;;6.87;5.37;;;18.70;70.00;;;;;;5053755;28;20619;-75
2023/10/01 00:07:36;;;;;;;8.67;6.00;;;18.60;69.80;;;;;;5053460;28;20546;-75
2023/10/01 00:10:09;;;;;;;8.30;5.60;;;18.70;70.10;;;;;;5054015;28;20476;-75
2023/10/01 00:12:37;;;;;;;10.10;6.40;;;18.60;69.70;;;;;;5053609;28;20226;-75
2023/10/01 00:15:05;;;;;;;9.43;5.83;;;18.60;69.70;;;;;;5053650;28;20614;-76
2023/10/01 00:17:32;;;;;;;11.50;5.73;;;18.60;69.80;;;;;;5041739;28;20213;-75
2023/10/01 00:20:00;;;;;;;7.80;5.60;;;18.60;69.80;;;;;;5033800;28;20250;-75
2023/10/01 00:22:27;;;;;;;9.20;5.67;;;18.60;69.70;;;;;;5034712;28;20449;-75
2023/10/01 00:24:56;;;;;;;8.40;5.77;;;18.50;69.80;;;;;;5033721;28;20464;-75
2023/10/01 00:27:23;;;;;;;7.43;5.23;;;18.50;69.90;;;;;;5033856;28;20202;-75
2023/10/01 00:29:50;;;;;;;7.43;5.30;;;18.50;70.00;;;;;;5016091;28;20461;-75
2023/10/01 00:32:17;;;;;;;6.93;5.47;;;18.40;70.00;;;;;;5033235;28;20272;-75
2023/10/01 00:34:44;;;;;;;7.70;5.23;;;18.40;69.90;;;;;;5052986;28;20304;-75
2023/10/01 00:37:11;;;;;;;9.20;5.80;;;18.40;69.80;;;;;;5053388;28;20229;-75
2023/10/01 00:39:38;;;;;;;6.97;5.40;;;18.40;69.80;;;;;;5053331;28;20448;-75
2023/10/01 00:42:07;;;;;;;6.37;4.97;;;18.40;70.00;;;;;;5053580;28;20486;-75
2023/10/01 00:44:34;;;;;;;7.20;5.17;;;18.40;70.00;;;;;;5053453;28;20217;-76
2023/10/01 00:47:04;;;;;;;7.00;4.80;;;18.40;69.80;;;;;;5052446;28;20227;-75
2023/10/01 00:49:36;;;;;;;6.80;4.73;;;18.40;69.80;;;;;;5053116;28;20688;-75
2023/10/01 00:52:03;;;;;;;8.63;5.80;;;18.30;69.90;;;;;;5052945;28;20214;-75
2023/10/01 00:54:30;;;;;;;6.33;5.20;;;18.30;69.90;;;;;;5035339;28;20453;-75
2023/10/01 00:56:57;;;;;;;8.83;5.50;;;18.20;69.70;;;;;;5052632;28;20525;-75
2023/10/01 00:59:26;;;;;;;6.90;4.80;;;18.30;69.90;;;;;;5052891;28;20823;-75
2023/10/01 01:01:53;;;;;;;8.33;5.27;;;18.20;69.70;;;;;;5052893;28;20453;-75
2023/10/01 01:04:22;;;;;;;7.03;4.80;;;18.20;69.80;;;;;;5052636;28;20226;-75
2023/10/01 01:06:52;;;;;;;8.87;5.40;;;18.20;70.00;;;;;;5052063;28;20202;-75
2023/10/01 01:09:20;;;;;;;6.10;5.07;;;18.10;69.90;;;;;;5052715;28;20573;-75
2023/10/01 01:11:48;;;;;;;7.57;4.93;;;18.10;69.90;;;;;;5051217;28;20257;-75
2023/10/01 01:14:15;;;;;;;6.37;4.67;;;18.10;69.80;;;;;;5050307;28;20230;-75
2023/10/01 01:16:45;;;;;;;7.00;4.60;;;18.10;69.80;;;;;;5046467;28;20294;-75
2023/10/01 01:19:12;;;;;;;6.37;5.23;;;18.00;69.70;;;;;;5042383;28;20451;-75
2023/10/01 01:21:42;;;;;;;7.37;4.87;;;18.00;70.00;;;;;;5051981;28;20963;-75
2023/10/01 01:24:10;;;;;;;9.73;4.90;;;17.90;70.20;;;;;;5051250;28;20620;-75
2023/10/01 01:26:41;;;;;;;6.70;4.90;;;18.00;70.40;;;;;;5043600;28;20753;-75
2023/10/01 01:29:18;;;;;;;7.23;4.97;;;17.90;70.40;;;;;;5016003;28;20471;-76
2023/10/01 01:31:46;;;;;;;5.97;5.07;;;17.90;70.40;;;;;;5029009;28;20980;-75
2023/10/01 01:34:14;;;;;;;8.30;5.30;;;17.90;70.30;;;;;;5035861;28;20802;-75
2023/10/01 01:36:42;;;;;;;8.67;5.53;;;17.80;70.30;;;;;;5014529;28;20517;-75
2023/10/01 01:39:26;;;;;;;8.50;5.43;;;17.80;70.40;;;;;;5032264;28;20445;-75
2023/10/01 01:41:54;;;;;;;9.10;5.97;;;17.80;70.50;;;;;;5032304;28;20477;-75
2023/10/01 01:44:23;;;;;;;7.60;5.20;;;17.80;70.50;;;;;;5032493;28;20242;-75
2023/10/01 01:46:50;;;;;;;7.87;5.87;;;17.70;70.50;;;;;;5032169;28;20469;-75
2023/10/01 01:49:19;;;;;;;7.60;5.40;;;17.70;70.30;;;;;;5035600;28;20240;-75
2023/10/01 01:51:59;;;;;;;7.53;5.23;;;17.70;70.40;;;;;;5051875;28;20583;-75
2023/10/01 01:54:29;;;;;;;10.17;5.77;;;17.70;70.40;;;;;;5051985;28;21081;-75
2023/10/01 01:56:56;;;;;;;7.03;5.40;;;17.70;70.50;;;;;;5051010;28;20571;-76
2023/10/01 01:59:27;;;;;;;7.10;5.17;;;17.70;70.40;;;;;;5033692;28;20510;-75
2023/10/01 02:01:55;;;;;;;6.60;5.33;;;17.70;70.40;;;;;;5052487;28;20448;-75
2023/10/01 02:04:22;;;;;;;7.33;5.43;;;17.60;70.40;;;;;;5051508;28;20471;-75
2023/10/01 02:06:50;;;;;;;8.23;5.47;;;17.60;70.40;;;;;;5050492;28;20479;-75
2023/10/01 02:09:19;;;;;;;6.67;5.20;;;17.60;70.50;;;;;;5047781;28;20836;-75
2023/10/01 02:11:49;;;;;;;7.43;5.20;;;17.60;70.40;;;;;;5051175;28;20490;-75
2023/10/01 02:17:15;;;;;;;6.30;4.50;;;17.60;70.20;;;;;;5108885;27;20639;-75
2023/10/01 02:19:46;;;;;;;6.13;4.70;;;17.50;70.00;;;;;;5109339;28;20249;-75
2023/10/01 02:22:13;;;;;;;6.27;5.13;;;17.50;70.10;;;;;;5109311;28;20454;-74
2023/10/01 02:24:54;;;;;;;6.80;4.77;;;17.40;70.20;;;;;;5107995;28;20552;-75
2023/10/01 02:27:24;;;;;;;5.33;4.60;;;17.40;70.90;;;;;;5109196;28;20465;-75
2023/10/01 02:32:49;;;;;;;6.33;4.40;;;17.20;71.60;;;;;;5101719;28;20434;-74
2023/10/01 02:37:58;;;;;;;6.60;4.73;;;17.10;71.80;;;;;;5108831;28;20789;-74
2023/10/01 02:40:25;;;;;;;5.43;4.23;;;17.20;71.70;;;;;;5108850;28;20473;-75
2023/10/01 02:42:56;;;;;;;7.33;4.67;;;17.20;71.40;;;;;;5108860;28;20479;-75
2023/10/01 02:45:30;;;;;;;7.53;4.90;;;17.10;71.40;;;;;;5107669;28;20949;-76
2023/10/01 02:48:16;;;;;;;5.10;4.43;;;17.20;71.30;;;;;;5107646;28;20796;-76
2023/10/01 02:50:45;;;;;;;7.23;4.70;;;17.20;71.30;;;;;;5108411;28;20454;-75
2023/10/01 02:53:19;;;;;;;6.23;4.83;;;17.20;71.40;;;;;;5109771;28;20452;-75
2023/10/01 02:55:45;;;;;;;5.90;4.40;;;17.20;71.20;;;;;;5109390;28;20481;-76
2023/10/01 02:58:20;;;;;;;5.30;4.40;;;17.20;71.00;;;;;;5108307;28;20996;-76
2023/10/01 03:00:46;;;;;;;6.50;4.63;;;17.20;70.90;;;;;;5088519;28;20208;-75
2023/10/01 03:03:18;;;;;;;5.97;4.50;;;17.20;70.80;;;;;;5106022;28;20493;-75
2023/10/01 03:05:46;;;;;;;8.33;4.73;;;17.10;70.70;;;;;;5108950;28;20817;-75
2023/10/01 03:08:41;;;;;;;5.57;4.17;;;17.10;70.60;;;;;;5108146;28;20556;-75
2023/10/01 03:11:08;;;;;;;6.90;4.47;;;17.10;70.70;;;;;;5108758;28;20445;-76
2023/10/01 03:13:36;;;;;;;7.63;4.50;;;17.10;70.70;;;;;;5092377;28;20509;-74
2023/10/01 03:18:54;;;;;;;5.90;4.63;;;17.00;70.60;;;;;;5107660;28;20476;-76
2023/10/01 03:22:08;;;;;;;6.53;4.70;;;17.00;70.70;;;;;;5108126;28;20458;-76
2023/10/01 03:24:10;;;;;;;5.17;4.33;;;17.00;70.80;;;;;;5108262;28;20560;-75
2023/10/01 03:26:43;;;;;;;6.70;5.00;;;16.90;70.80;;;;;;5105243;28;20950;-75
2023/10/01 03:29:19;;;;;;;6.50;4.47;;;16.90;70.70;;;;;;5094423;28;20528;-74
2023/10/01 03:31:46;;;;;;;5.33;4.67;;;17.00;70.70;;;;;;5094142;28;20556;-75
2023/10/01 03:34:28;;;;;;;6.30;4.40;;;16.90;70.70;;;;;;5094536;28;20450;-75
2023/10/01 03:36:58;;;;;;;5.53;4.17;;;16.90;70.80;;;;;;5094331;28;20566;-75
2023/10/01 03:39:26;;;;;;;5.30;4.47;;;16.90;70.70;;;;;;5094218;28;20455;-75
2023/10/01 03:41:54;;;;;;;5.47;4.60;;;16.90;70.80;;;;;;5094252;28;20451;-74
2023/10/01 03:44:58;;;;;;;6.63;4.63;;;16.90;70.90;;;;;;5094065;28;20946;-75
2023/10/01 03:47:08;;;;;;;6.57;4.60;;;16.80;70.70;;;;;;5093398;28;20473;-74
2023/10/01 03:49:40;;;;;;;6.40;4.50;;;16.80;70.80;;;;;;5094422;28;20465;-74
2023/10/01 03:52:09;;;;;;;5.87;4.60;;;16.80;71.00;;;;;;5094068;28;20225;-75
2023/10/01 03:57:17;;;;;;;9.00;5.20;;;16.70;71.20;;;;;;5078274;28;21094;-75
2023/10/01 03:59:51;;;;;;;7.03;4.60;;;16.70;71.60;;;;;;5094060;28;20451;-76
2023/10/01 04:02:28;;;;;;;7.20;4.90;;;16.60;71.60;;;;;;5093254;28;20578;-75
2023/10/01 04:05:02;;;;;;;6.40;4.87;;;16.50;71.70;;;;;;5093823;28;20997;-75
2023/10/01 04:07:40;;;;;;;6.87;5.43;;;16.50;71.90;;;;;;5093480;28;20818;-74
2023/10/01 04:10:13;;;;;;;7.93;5.23;;;16.40;72.20;;;;;;5093536;28;20552;-74
2023/10/01 04:12:44;;;;;;;6.50;5.17;;;16.50;72.50;;;;;;5093934;28;20492;-75
2023/10/01 04:15:27;;;;;;;8.60;5.13;;;16.50;72.50;;;;;;5092934;28;20479;-76
2023/10/01 04:20:37;;;;;;;7.10;5.17;;;16.40;71.80;;;;;;5093176;28;20535;-75
2023/10/01 04:23:04;;;;;;;10.47;5.10;;;16.40;72.00;;;;;;5093318;28;20450;-75
2023/10/01 04:25:36;;;;;;;7.60;4.53;;;16.40;72.00;;;;;;5093309;28;20446;-75
2023/10/01 04:28:07;;;;;;;9.80;5.30;;;16.50;72.20;;;;;;5093037;28;20490;-76
2023/10/01 04:30:35;;;;;;;7.60;4.80;;;16.40;71.70;;;;;;5092485;28;20450;-76
2023/10/01 04:33:16;;;;;;;7.50;5.50;;;16.40;71.80;;;;;;5093188;28;20454;-75
2023/10/01 04:35:51;;;;;;;6.83;5.00;;;16.40;72.00;;;;;;5092880;28;20494;-76
2023/10/01 04:38:20;;;;;;;8.33;5.00;;;16.40;72.40;;;;;;5092476;28;20884;-76
2023/10/01 04:40:48;;;;;;;9.27;5.50;;;16.40;72.40;;;;;;5092652;28;20712;-76
2023/10/01 04:43:16;;;;;;;9.17;5.17;;;16.40;72.40;;;;;;5092553;28;20450;-75
2023/10/01 04:45:44;;;;;;;8.40;5.10;;;16.40;72.60;;;;;;5092730;28;21131;-75
2023/10/01 04:48:15;;;;;;;7.93;5.30;;;16.30;72.80;;;;;;5092736;28;20458;-75
2023/10/01 04:50:42;;;;;;;7.57;4.80;;;16.30;72.60;;;;;;5093002;28;20996;-75
2023/10/01 04:53:13;;;;;;;6.73;4.60;;;16.30;72.50;;;;;;5092802;28;20458;-75
2023/10/01 04:55:42;;;;;;;5.97;4.87;;;16.30;72.30;;;;;;5092862;28;20516;-75
2023/10/01 04:58:12;;;;;;;6.37;4.50;;;16.40;72.40;;;;;;5092593;28;21043;-75
2023/10/01 05:00:40;;;;;;;17.40;7.37;;;16.40;72.40;;;;;;5092328;28;20447;-75
2023/10/01 05:03:08;;;;;;;17.33;6.73;;;16.30;72.80;;;;;;5092739;28;20451;-75
2023/10/01 05:05:37;;;;;;;8.17;5.53;;;16.30;73.60;;;;;;5092708;28;20459;-75
2023/10/01 05:08:05;;;;;;;7.43;5.20;;;16.30;73.30;;;;;;5092345;28;20536;-75
2023/10/01 05:10:50;;;;;;;7.10;4.63;;;16.30;72.70;;;;;;5092384;28;20450;-75
2023/10/01 05:13:20;;;;;;;8.37;4.90;;;16.30;72.50;;;;;;5090996;28;20486;-74
2023/10/01 05:15:49;;;;;;;6.80;5.00;;;16.20;72.20;;;;;;5091167;28;20486;-75
2023/10/01 05:18:17;;;;;;;7.73;5.30;;;16.20;72.20;;;;;;5092230;28;20477;-76
2023/10/01 05:20:45;;;;;;;5.93;4.77;;;16.20;72.20;;;;;;5092883;28;20446;-74
2023/10/01 05:23:12;;;;;;;6.77;4.70;;;16.10;72.40;;;;;;5092343;28;20494;-74
2023/10/01 05:25:45;;;;;;;7.53;5.23;;;16.10;72.50;;;;;;5092323;28;20451;-74
2023/10/01 05:28:23;;;;;;;7.77;4.70;;;16.10;72.60;;;;;;5091591;28;20458;-75
2023/10/01 05:30:56;;;;;;;5.90;4.67;;;16.10;72.70;;;;;;5092371;28;20454;-74
2023/10/01 05:33:24;;;;;;;8.17;5.43;;;16.10;72.80;;;;;;5092064;28;20520;-75
2023/10/01 05:35:57;;;;;;;6.97;5.30;;;16.10;72.70;;;;;;5092000;28;20455;-75
2023/10/01 05:38:26;;;;;;;7.20;4.73;;;16.10;72.70;;;;;;5090500;28;20451;-75
2023/10/01 05:40:56;;;;;;;7.00;5.10;;;16.10;73.30;;;;;;5091924;28;20478;-74
2023/10/01 05:43:27;;;;;;;7.07;4.63;;;16.10;72.30;;;;;;5091545;28;20450;-75
2023/10/01 05:46:01;;;;;;;7.43;5.20;;;16.10;72.30;;;;;;5091723;28;20475;-75
2023/10/01 05:48:29;;;;;;;7.43;4.63;;;16.10;72.40;;;;;;5091616;28;20455;-75
2023/10/01 05:50:58;;;;;;;8.63;4.70;;;16.10;72.90;;;;;;5091759;28;20447;-75
2023/10/01 05:53:26;;;;;;;7.23;5.30;;;16.10;72.10;;;;;;5091400;28;20457;-74
2023/10/01 05:55:54;;;;;;;7.73;5.30;;;16.10;72.90;;;;;;5091866;28;20529;-74
2023/10/01 05:58:22;;;;;;;8.07;5.43;;;16.10;72.30;;;;;;5091141;28;20747;-75
2023/10/01 06:01:05;;;;;;;5.97;4.30;;;16.10;72.50;;;;;;5092047;28;20465;-75
2023/10/01 06:03:33;;;;;;;7.53;5.13;;;16.10;72.60;;;;;;5091780;28;20539;-75
2023/10/01 06:06:08;;;;;;;7.60;4.87;;;16.20;72.70;;;;;;5091869;28;20450;-76
2023/10/01 06:08:45;;;;;;;6.97;4.50;;;16.20;72.80;;;;;;5090633;28;20527;-75
2023/10/01 06:11:15;;;;;;;6.30;4.53;;;16.20;72.90;;;;;;5090283;28;20946;-75
2023/10/01 06:13:56;;;;;;;8.60;5.03;;;16.20;72.90;;;;;;5091286;28;20531;-74
2023/10/01 06:16:25;;;;;;;5.93;4.70;;;16.20;72.90;;;;;;5101998;28;20486;-75
2023/10/01 06:18:56;;;;;;;5.30;4.37;;;16.20;72.60;;;;;;5091131;28;20476;-74
2023/10/01 06:21:25;;;;;;;7.30;4.87;;;16.20;72.80;;;;;;5091507;28;20461;-75
2023/10/01 06:23:52;;;;;;;5.47;4.83;;;16.20;72.90;;;;;;5091541;28;20842;-78
2023/10/01 06:26:22;;;;;;;7.73;4.97;;;16.20;72.70;;;;;;5091481;28;20442;-77
2023/10/01 06:28:51;;;;;;;5.63;4.47;;;16.30;73.00;;;;;;5090347;28;20466;-77
2023/10/01 06:31:20;;;;;;;6.20;4.73;;;16.30;73.10;;;;;;5091745;28;20457;-76
2023/10/01 06:33:53;;;;;;;6.80;4.63;;;16.30;73.20;;;;;;5090829;28;20458;-76
2023/10/01 06:36:25;;;;;;;7.10;4.80;;;16.40;73.60;;;;;;5089700;28;20490;-77
2023/10/01 06:38:54;;;;;;;6.47;4.17;;;16.40;73.70;;;;;;5090979;28;20465;-76
2023/10/01 06:41:28;;;;;;;8.23;4.90;;;16.50;73.90;;;;;;5071232;28;20483;-78
2023/10/01 06:43:56;;;;;;;7.90;5.13;;;16.50;74.20;;;;;;5071649;28;20454;-78
2023/10/01 06:46:27;;;;;;;8.67;5.63;;;16.60;74.40;;;;;;5071205;28;20471;-77
2023/10/01 06:48:56;;;;;;;9.87;5.93;;;16.70;74.80;;;;;;5070976;28;20892;-77
2023/10/01 06:51:24;;;;;;;9.37;5.60;;;16.60;74.80;;;;;;5071288;28;20467;-77
2023/10/01 06:53:58;;;;;;;6.97;5.30;;;16.70;75.20;;;;;;5071016;28;20589;-77
2023/10/01 06:56:29;;;;;;;7.40;5.17;;;16.70;75.70;;;;;;5071031;28;20858;-77
2023/10/01 06:59:13;;;;;;;6.67;4.80;;;16.70;76.00;;;;;;5071118;28;20554;-76
2023/10/01 07:01:47;;;;;;;8.53;6.07;;;16.80;76.20;;;;;;5071273;28;20471;-77
2023/10/01 07:04:15;;;;;;;7.70;5.33;;;16.90;76.50;;;;;;5074794;28;20457;-77
2023/10/01 07:06:44;;;;;;;9.17;5.20;;;16.90;76.40;;;;;;5075040;28;20541;-77
2023/10/01 07:09:24;;;;;;;7.97;5.00;;;17.10;76.90;;;;;;5073882;28;20931;-77
2023/10/01 07:11:53;;;;;;;8.90;5.53;;;17.20;77.90;;;;;;5077840;28;20466;-78
2023/10/01 07:14:30;;;;;;;8.97;5.63;;;17.30;77.70;;;;;;5094513;28;20454;-78
2023/10/01 07:17:00;;;;;;;10.47;5.57;;;17.40;76.70;;;;;;5094827;28;21000;-76
2023/10/01 07:19:30;;;;;;;6.73;5.20;;;17.50;76.80;;;;;;5094861;28;20474;-77
2023/10/01 07:22:06;;;;;;;8.60;5.40;;;17.60;76.80;;;;;;5094609;28;20813;-77
2023/10/01 07:24:33;;;;;;;6.40;4.67;;;17.70;76.30;;;;;;5094861;28;20478;-77
2023/10/01 07:27:06;;;;;;;7.43;5.53;;;17.70;76.10;;;;;;5094574;28;20908;-76
2023/10/01 07:29:34;;;;;;;7.70;5.90;;;17.80;76.20;;;;;;5094516;28;20473;-76
2023/10/01 07:32:06;;;;;;;9.13;5.63;;;17.90;76.30;;;;;;5094525;28;20215;-76
2023/10/01 07:34:35;;;;;;;8.90;5.60;;;17.90;76.80;;;;;;5094714;28;20315;-77
2023/10/01 07:37:04;;;;;;;7.90;6.03;;;18.00;76.50;;;;;;5094185;28;21070;-76
2023/10/01 07:39:36;;;;;;;7.57;6.07;;;18.00;76.40;;;;;;5093571;28;20220;-76
2023/10/01 07:42:05;;;;;;;7.57;5.90;;;18.10;76.90;;;;;;5094615;28;20204;-76
2023/10/01 07:44:35;;;;;;;8.47;6.03;;;18.10;77.10;;;;;;5094314;28;20445;-76
2023/10/01 07:47:02;;;;;;;7.23;5.50;;;18.20;77.20;;;;;;5093735;28;20222;-77
2023/10/01 07:49:46;;;;;;;7.80;5.77;;;18.30;77.00;;;;;;5093965;28;20307;-78
2023/10/01 07:52:17;;;;;;;8.57;5.23;;;18.50;77.10;;;;;;5094315;28;20212;-75
2023/10/01 07:54:47;;;;;;;10.10;6.30;;;18.70;76.60;;;;;;5094121;28;20255;-78
2023/10/01 07:57:16;;;;;;;9.60;6.10;;;18.80;76.30;;;;;;5094183;28;20221;-76
2023/10/01 07:59:46;;;;;;;9.53;6.10;;;18.90;76.00;;;;;;5093900;28;20208;-75
2023/10/01 08:02:21;;;;;;;10.10;6.20;;;19.00;75.80;;;;;;5094001;28;20570;-77
2023/10/01 08:04:57;;;;;;;9.33;5.93;;;19.10;75.20;;;;;;5094395;28;20250;-77
2023/10/01 08:07:30;;;;;;;11.93;6.27;;;19.20;76.10;;;;;;5094136;28;20224;-75
2023/10/01 08:09:59;;;;;;;8.80;6.27;;;19.30;75.20;;;;;;5093688;28;20458;-75
2023/10/01 08:13:04;;;;;;;8.30;6.10;;;19.40;75.10;;;;;;5094023;28;20235;-74
2023/10/01 08:15:29;;;;;;;8.37;5.83;;;19.50;75.40;;;;;;5093573;28;20293;-74
2023/10/01 08:18:19;;;;;;;11.47;6.40;;;19.60;74.50;;;;;;5093754;28;20247;-75
2023/10/01 08:20:48;;;;;;;8.53;6.10;;;19.70;74.60;;;;;;5093326;28;20202;-74
2023/10/01 08:23:23;;;;;;;10.03;6.07;;;19.90;75.00;;;;;;5093543;28;20224;-75
2023/10/01 08:25:55;;;;;;;8.63;5.77;;;20.00;74.20;;;;;;5093034;28;20218;-74
2023/10/01 08:28:29;;;;;;;10.20;6.40;;;20.10;73.90;;;;;;5073153;28;20282;-74
2023/10/01 08:33:43;;;;;;;9.20;6.07;;;20.30;73.50;;;;;;5092966;28;20707;-73
2023/10/01 08:36:14;;;;;;;9.43;6.67;;;20.40;73.00;;;;;;5092941;28;20649;-74
2023/10/01 08:38:47;;;;;;;9.00;6.37;;;20.40;72.40;;;;;;5092943;28;20675;-74
2023/10/01 08:41:32;;;;;;;11.43;6.47;;;20.50;72.60;;;;;;5093354;28;20295;-74
2023/10/01 08:44:10;;;;;;;7.87;6.10;;;20.60;72.60;;;;;;5093292;28;20211;-75
2023/10/01 08:46:40;;;;;;;9.20;6.40;;;20.70;72.20;;;;;;5092907;28;20200;-75
2023/10/01 08:49:22;;;;;;;8.50;6.37;;;20.80;72.40;;;;;;5093019;28;20234;-74
2023/10/01 08:51:52;;;;;;;10.67;6.27;;;20.90;71.70;;;;;;5092219;28;20687;-75
2023/10/01 08:54:23;;;;;;;10.97;6.57;;;21.00;71.30;;;;;;5092763;28;20206;-75
2023/10/01 08:56:52;;;;;;;11.27;6.57;;;21.10;72.10;;;;;;5099971;28;20571;-74
2023/10/01 08:59:25;;;;;;;9.73;6.20;;;21.20;71.10;;;;;;5096756;28;20225;-74
2023/10/01 09:01:55;;;;;;;9.17;5.67;;;21.30;70.60;;;;;;5092753;28;20220;-75
2023/10/01 09:04:44;;;;;;;8.57;5.70;;;21.50;70.40;;;;;;5092680;28;20214;-74
2023/10/01 09:07:18;;;;;;;8.27;6.17;;;21.60;69.70;;;;;;5092760;28;20224;-74
2023/10/01 09:09:54;;;;;;;8.80;6.23;;;21.70;69.30;;;;;;5092515;28;20204;-74
2023/10/01 09:12:21;;;;;;;7.80;5.13;;;21.90;69.50;;;;;;5092694;28;20327;-74
2023/10/01 09:14:49;;;;;;;9.23;5.80;;;22.00;69.20;;;;;;5092398;28;20207;-75
2023/10/01 09:17:24;;;;;;;9.63;5.73;;;22.20;68.00;;;;;;5092683;28;20232;-74
2023/10/01 09:19:52;;;;;;;9.23;6.07;;;22.30;67.90;;;;;;5092085;28;20184;-74
2023/10/01 09:22:40;;;;;;;9.57;5.83;;;22.40;67.70;;;;;;5091982;28;20227;-74
2023/10/01 09:25:17;;;;;;;9.63;5.33;;;22.50;67.30;;;;;;5093545;28;20527;-74
2023/10/01 09:27:57;;;;;;;8.87;5.90;;;22.70;66.70;;;;;;5092411;28;20224;-74
2023/10/01 09:30:27;;;;;;;10.03;6.63;;;22.90;67.60;;;;;;5092504;28;20618;-74
2023/10/01 09:32:54;;;;;;;10.10;5.93;;;23.10;66.60;;;;;;5092739;28;20599;-74
2023/10/01 09:35:38;;;;;;;9.00;5.80;;;23.20;65.50;;;;;;5092974;28;20240;-74
2023/10/01 09:38:10;;;;;;;9.50;5.77;;;23.40;65.80;;;;;;5091578;28;20311;-74
2023/10/01 09:40:38;;;;;;;8.77;5.80;;;23.50;64.10;;;;;;5092064;28;20196;-74
2023/10/01 09:43:15;;;;;;;8.40;5.57;;;23.60;64.60;;;;;;5092037;28;20204;-74
2023/10/01 09:45:47;;;;;;;9.20;5.80;;;23.80;64.70;;;;;;5091953;28;20683;-73
2023/10/01 09:48:29;;;;;;;9.10;5.00;;;24.00;62.90;;;;;;5093070;28;20202;-74
2023/10/01 09:51:03;;;;;;;8.37;5.63;;;24.10;63.20;;;;;;5082181;28;20219;-75
2023/10/01 09:53:37;;;;;;;8.47;5.73;;;24.30;62.30;;;;;;5101742;28;20241;-74
2023/10/01 09:56:06;;;;;;;8.40;5.70;;;24.40;61.00;;;;;;5092537;28;20224;-74
2023/10/01 09:58:33;;;;;;;7.33;5.53;;;24.40;61.30;;;;;;5091425;28;20216;-74
2023/10/01 10:01:02;;;;;;;7.53;5.33;;;24.60;60.50;;;;;;5091533;28;20228;-75
2023/10/01 10:03:36;;;;;;;9.27;5.63;;;24.80;60.00;;;;;;5091838;28;20455;-74
2023/10/01 10:06:06;;;;;;;7.63;5.83;;;24.90;59.40;;;;;;5091571;28;20214;-74
2023/10/01 10:08:34;;;;;;;8.73;5.70;;;25.00;59.00;;;;;;5091509;28;20295;-74
2023/10/01 10:11:05;;;;;;;7.53;5.30;;;25.10;59.30;;;;;;5091456;28;20232;-74
2023/10/01 10:13:45;;;;;;;7.17;5.30;;;25.30;58.90;;;;;;5091389;28;20228;-74
2023/10/01 10:16:30;;;;;;;8.67;5.87;;;25.40;57.60;;;;;;5091501;28;20241;-75
2023/10/01 10:19:08;;;;;;;8.63;6.20;;;25.40;58.20;;;;;;5099427;28;20227;-74
2023/10/01 10:22:12;;;;;;;8.33;5.30;;;25.60;58.60;;;;;;5094172;28;20609;-74
2023/10/01 10:24:46;;;;;;;8.20;5.73;;;25.80;57.50;;;;;;5095337;28;20234;-75
2023/10/01 10:27:17;;;;;;;10.20;5.73;;;25.90;56.30;;;;;;5071534;28;20209;-75
2023/10/01 10:30:21;;;;;;;8.37;5.73;;;25.90;57.30;;;;;;5079750;28;20291;-75
2023/10/01 10:33:39;;;;;;;8.13;5.17;;;26.00;55.60;;;;;;5091762;28;20295;-74
2023/10/01 10:36:51;;;;;;;9.93;5.70;;;26.00;53.60;;;;;;5091446;28;20224;-75
2023/10/01 10:40:26;;;;;;;7.30;5.30;;;25.90;54.50;;;;;;5095747;28;20228;-75
2023/10/01 10:43:19;;;;;;;9.70;5.70;;;26.00;54.60;;;;;;5095566;28;20291;-75
2023/10/01 10:45:59;;;;;;;8.77;5.60;;;26.20;53.90;;;;;;5095392;28;20308;-73
2023/10/01 10:48:59;;;;;;;7.73;5.17;;;26.30;54.10;;;;;;5095377;28;20287;-74
2023/10/01 10:51:45;;;;;;;8.50;5.30;;;26.50;54.80;;;;;;5095090;28;20679;-74
2023/10/01 10:54:16;;;;;;;8.43;5.60;;;26.70;53.40;;;;;;5095592;28;20246;-75
2023/10/01 10:56:44;;;;;;;10.40;5.63;;;26.80;53.70;;;;;;5095351;28;20232;-74
2023/10/01 10:59:15;;;;;;;8.80;5.53;;;27.00;53.80;;;;;;5095249;28;20234;-74
2023/10/01 11:01:45;;;;;;;7.73;5.40;;;27.00;53.00;;;;;;5095040;28;20228;-74
2023/10/01 11:04:13;;;;;;;8.90;5.50;;;27.20;53.10;;;;;;5095310;28;20290;-74
2023/10/01 11:06:42;;;;;;;7.83;5.70;;;27.20;52.80;;;;;;5095305;28;20256;-75
2023/10/01 11:09:25;;;;;;;8.10;5.70;;;27.20;52.30;;;;;;5094162;28;20195;-75
2023/10/01 11:11:52;;;;;;;8.20;5.63;;;27.20;51.90;;;;;;5095191;28;20256;-75
2023/10/01 11:14:21;;;;;;;9.07;5.70;;;27.40;52.20;;;;;;5094252;28;20300;-74
2023/10/01 11:16:49;;;;;;;8.63;5.63;;;27.40;52.10;;;;;;5094990;28;20533;-75
2023/10/01 11:19:25;;;;;;;8.43;5.43;;;27.60;51.70;;;;;;5093838;28;20232;-75
2023/10/01 11:21:59;;;;;;;7.53;5.50;;;27.60;51.90;;;;;;5094829;28;20197;-74
2023/10/01 11:24:30;;;;;;;8.57;5.80;;;27.70;51.20;;;;;;5095180;28;20233;-75
2023/10/01 11:27:22;;;;;;;9.43;6.07;;;27.70;51.30;;;;;;5094195;28;20214;-75
2023/10/01 11:30:15;;;;;;;9.37;6.00;;;27.70;50.50;;;;;;5094465;28;20611;-75
2023/10/01 11:33:01;;;;;;;8.37;5.50;;;27.80;50.30;;;;;;5094675;28;20211;-75
2023/10/01 11:35:35;;;;;;;8.80;6.00;;;27.80;50.60;;;;;;5094933;28;20278;-75
2023/10/01 11:38:08;;;;;;;7.33;5.60;;;28.00;50.70;;;;;;5094594;28;20223;-75
2023/10/01 11:43:33;;;;;;;7.97;5.70;;;28.30;50.50;;;;;;5094312;28;20260;-74
2023/10/01 11:46:23;;;;;;;9.67;5.73;;;28.40;50.30;;;;;;5094638;28;20223;-76
2023/10/01 11:48:57;;;;;;;9.87;6.47;;;28.60;49.20;;;;;;5093156;28;20188;-75
2023/10/01 11:51:31;;;;;;;10.00;6.17;;;28.60;48.60;;;;;;5094235;28;20307;-75
2023/10/01 11:54:09;;;;;;;8.07;5.73;;;28.60;49.60;;;;;;5094357;28;20223;-75
2023/10/01 11:56:40;;;;;;;7.63;5.90;;;28.70;49.50;;;;;;5074076;28;20232;-75
2023/10/01 11:59:10;;;;;;;8.30;5.87;;;28.90;49.50;;;;;;5073793;28;20263;-75
2023/10/01 12:01:47;;;;;;;9.03;5.57;;;29.00;49.40;;;;;;5073816;28;20229;-74
2023/10/01 12:04:24;;;;;;;8.90;6.20;;;29.20;49.60;;;;;;5073807;28;20734;-75
2023/10/01 12:06:53;;;;;;;10.57;6.33;;;29.30;48.20;;;;;;5075443;28;20283;-76
2023/10/01 12:09:21;;;;;;;9.63;6.37;;;29.30;48.40;;;;;;5093690;28;20240;-75
2023/10/01 12:14:29;;;;;;;7.70;5.80;;;29.50;47.80;;;;;;5094010;28;20237;-75
2023/10/01 12:17:01;;;;;;;8.90;5.90;;;29.50;47.90;;;;;;5093033;28;20652;-75
2023/10/01 12:19:29;;;;;;;7.57;5.97;;;29.70;48.00;;;;;;5093915;28;20634;-75
2023/10/01 12:22:09;;;;;;;8.37;5.63;;;29.80;48.00;;;;;;5093770;28;20292;-74
2023/10/01 12:24:44;;;;;;;10.00;6.33;;;30.00;47.90;;;;;;5093566;28;20196;-75
2023/10/01 12:27:37;;;;;;;9.53;6.13;;;30.10;47.10;;;;;;5093508;28;20200;-76
2023/10/01 12:30:00;;;;;;;8.97;5.60;;;30.10;46.70;;;;;;5093414;28;20210;-74
2023/10/01 12:32:41;;;;;;;7.80;5.50;;;30.20;47.50;;;;;;5093489;28;20247;-75
2023/10/01 12:35:18;;;;;;;7.97;5.67;;;30.30;47.30;;;;;;5093010;28;20477;-75
2023/10/01 12:37:45;;;;;;;8.57;5.83;;;30.50;47.30;;;;;;5093936;28;20295;-74
2023/10/01 12:40:16;;;;;;;6.93;5.23;;;30.70;47.00;;;;;;5093294;28;20641;-75
2023/10/01 12:42:50;;;;;;;9.30;6.17;;;30.80;46.60;;;;;;5093313;28;20291;-76
2023/10/01 12:45:19;;;;;;;8.57;5.97;;;31.00;45.90;;;;;;5092822;28;20238;-74
2023/10/01 12:47:51;;;;;;;8.80;6.00;;;31.00;45.20;;;;;;5093275;28;20200;-74
2023/10/01 12:50:26;;;;;;;8.73;5.83;;;31.10;45.40;;;;;;5093919;28;20231;-75
2023/10/01 12:53:19;;;;;;;7.97;5.77;;;31.20;45.60;;;;;;5093161;28;20239;-75
2023/10/01 12:55:51;;;;;;;9.10;6.27;;;31.50;45.50;;;;;;5092970;28;20229;-75
2023/10/01 12:58:20;;;;;;;8.87;6.07;;;31.70;44.60;;;;;;5092881;28;20221;-75
2023/10/01 13:00:46;;;;;;;8.17;6.10;;;31.70;44.20;;;;;;5091333;28;20591;-73
2023/10/01 13:03:19;;;;;;;8.77;6.40;;;31.70;43.70;;;;;;5093386;28;20204;-74
2023/10/01 13:05:47;;;;;;;8.13;5.90;;;31.80;43.30;;;;;;5092864;28;20748;-73
2023/10/01 13:08:27;;;;;;;7.90;5.83;;;31.80;43.40;;;;;;5092433;28;20198;-75
2023/10/01 13:10:56;;;;;;;9.00;6.00;;;31.90;43.20;;;;;;5092378;28;20209;-74
2023/10/01 13:13:29;;;;;;;8.50;6.13;;;31.90;43.40;;;;;;5090184;28;20205;-74
2023/10/01 13:15:58;;;;;;;9.17;6.23;;;32.10;43.70;;;;;;5091598;28;20233;-74
2023/10/01 13:18:28;;;;;;;8.60;6.50;;;32.20;43.00;;;;;;5072458;28;20344;-73
2023/10/01 13:21:09;;;;;;;10.33;6.60;;;32.50;42.90;;;;;;5088501;28;20204;-74
2023/10/01 13:23:42;;;;;;;8.53;5.53;;;32.60;42.10;;;;;;5089090;28;20234;-73
2023/10/01 13:26:24;;;;;;;8.93;6.90;;;32.80;42.60;;;;;;5092838;28;20210;-72
2023/10/01 13:28:54;;;;;;;9.13;5.60;;;33.10;42.90;;;;;;5092261;28;20588;-75
2023/10/01 13:31:40;;;;;;;8.70;6.00;;;33.40;42.60;;;;;;5092114;28;20199;-74
2023/10/01 13:34:21;;;;;;;8.03;6.43;;;33.80;41.90;;;;;;5092566;28;20223;-74
2023/10/01 13:37:11;;;;;;;8.10;6.60;;;34.10;40.70;;;;;;5092540;28;20813;-75
2023/10/01 13:39:52;;;;;;;8.17;6.00;;;34.40;40.40;;;;;;5091144;28;20228;-75